createdAt,value
2018-04-23T00:01:26.122Z,62.80
2018-04-23T00:06:28.787Z,62.60
2018-04-23T00:11:32.653Z,62.90
2018-04-23T00:16:37.110Z,62.90
2018-04-23T00:21:40.009Z,63.00
2018-04-23T00:26:46.403Z,63.20
2018-04-23T00:31:49.450Z,63.30
2018-04-23T00:41:59.066Z,64.30
2018-04-23T00:47:02.202Z,64.40
2018-04-23T00:52:04.882Z,64.70
2018-04-23T00:57:10.323Z,64.80
2018-04-23T01:02:13.609Z,65.00
2018-04-23T01:07:17.071Z,65.00
2018-04-23T01:12:20.602Z,65.50
2018-04-23T01:17:23.696Z,65.70
2018-04-23T01:22:29.774Z,65.50
2018-04-23T01:27:32.708Z,65.50
2018-04-23T01:32:37.142Z,65.40
2018-04-23T01:37:40.590Z,65.40
2018-04-23T01:42:43.199Z,66.50
2018-04-23T01:47:49.108Z,65.80
2018-04-23T01:52:52.556Z,66.00
2018-04-23T01:57:56.178Z,66.20
2018-04-23T02:02:59.097Z,66.10
2018-04-23T02:08:02.601Z,65.90
2018-04-23T02:13:05.289Z,66.00
2018-04-23T02:18:08.117Z,66.60
2018-04-23T02:23:11.618Z,66.20
2018-04-23T02:28:14.605Z,66.80
2018-04-23T02:33:17.297Z,67.00
2018-04-23T02:38:21.793Z,66.80
2018-04-23T02:43:24.537Z,68.20
2018-04-23T02:48:27.237Z,67.20
2018-04-23T02:53:30.860Z,67.00
2018-04-23T02:58:36.914Z,67.40
2018-04-23T03:03:40.419Z,66.90
2018-04-23T03:08:44.410Z,67.00
2018-04-23T03:13:47.160Z,67.60
2018-04-23T03:18:50.758Z,67.20
2018-04-23T03:23:54.237Z,67.20
2018-04-23T03:28:57.292Z,68.10
2018-04-23T03:34:00.300Z,67.90
2018-04-23T03:39:04.865Z,67.60
2018-04-23T03:44:08.307Z,68.70
2018-04-23T03:49:11.414Z,68.60
2018-04-23T03:54:14.870Z,69.20
2018-04-23T03:59:18.208Z,68.90
2018-04-23T04:04:21.079Z,69.00
2018-04-23T04:09:24.541Z,69.70
2018-04-23T04:14:52.312Z,69.20
2018-04-23T04:19:58.368Z,69.20
2018-04-23T04:25:03.429Z,70.00
2018-04-23T04:30:06.439Z,70.00
2018-04-23T04:35:12.514Z,69.00
2018-04-23T04:45:22.966Z,68.30
2018-04-23T04:50:25.700Z,68.20
2018-04-23T04:55:31.865Z,68.70
2018-04-23T05:00:35.427Z,69.10
2018-04-23T05:05:38.478Z,68.40
2018-04-23T05:10:41.674Z,69.30
2018-04-23T05:15:44.613Z,68.50
2018-04-23T05:20:48.161Z,68.30
2018-04-23T05:25:51.730Z,68.00
2018-04-23T05:30:54.448Z,68.80
2018-04-23T05:35:57.645Z,68.90
2018-04-23T05:41:03.983Z,69.40
2018-04-23T05:46:06.625Z,69.20
2018-04-23T05:51:10.084Z,69.30
2018-04-23T05:56:13.227Z,69.60
2018-04-23T06:06:24.496Z,68.20
2018-04-23T06:11:27.418Z,68.30
2018-04-23T06:16:30.468Z,67.70
2018-04-23T06:21:35.243Z,67.60
2018-04-23T06:26:38.219Z,67.70
2018-04-23T06:31:41.057Z,68.00
2018-04-23T06:36:44.679Z,67.50
2018-04-23T06:41:47.514Z,67.90
2018-04-23T06:46:51.151Z,68.70
2018-04-23T06:57:02.788Z,68.00
2018-04-23T07:02:05.752Z,67.50
2018-04-23T07:07:09.665Z,67.80
2018-04-23T07:12:13.679Z,67.90
2018-04-23T07:17:16.908Z,67.80
2018-04-23T07:22:20.433Z,67.90
2018-04-23T07:27:23.254Z,67.40
2018-04-23T07:32:29.388Z,67.10
2018-04-23T07:37:32.123Z,66.70
2018-04-23T07:42:34.987Z,65.60
2018-04-23T07:47:37.643Z,64.90
2018-04-23T07:52:40.970Z,64.50
2018-04-23T07:57:43.701Z,63.30
2018-04-23T08:02:48.809Z,61.90
2018-04-23T08:07:52.329Z,61.80
2018-04-23T08:12:54.878Z,61.00
2018-04-23T08:17:58.280Z,60.60
2018-04-23T08:23:01.062Z,59.70
2018-04-23T08:28:05.080Z,58.90
2018-04-23T08:33:08.117Z,58.60
2018-04-23T08:38:12.452Z,58.10
2018-04-23T08:43:15.661Z,57.50
2018-04-23T08:48:18.472Z,57.30
2018-04-23T08:53:21.158Z,57.30
2018-04-23T08:58:24.303Z,56.90
2018-04-23T09:03:27.183Z,56.30
2018-04-23T09:08:32.128Z,55.90
2018-04-23T09:13:36.382Z,55.70
2018-04-23T09:18:39.181Z,55.90
2018-04-23T09:23:43.054Z,54.30
2018-04-23T09:28:45.814Z,54.40
2018-04-23T09:33:49.229Z,54.50
2018-04-23T09:38:55.529Z,54.30
2018-04-23T09:43:59.008Z,54.20
2018-04-23T09:49:02.162Z,54.30
2018-04-23T09:54:05.702Z,54.20
2018-04-23T09:59:08.706Z,54.10
2018-04-23T10:04:12.582Z,53.10
2018-04-23T10:09:16.914Z,53.60
2018-04-23T10:14:20.220Z,53.50
2018-04-23T10:19:23.269Z,53.30
2018-04-23T10:24:26.343Z,53.40
2018-04-23T10:29:29.708Z,52.60
2018-04-23T10:34:33.136Z,52.40
2018-04-23T10:39:36.749Z,51.60
2018-04-23T10:44:41.098Z,50.00
2018-04-23T10:49:44.417Z,49.90
2018-04-23T10:54:47.511Z,48.70
2018-04-23T10:59:50.189Z,48.90
2018-04-23T11:04:54.539Z,49.00
2018-04-23T11:09:57.942Z,48.10
2018-04-23T11:15:01.754Z,46.00
2018-04-23T11:20:04.999Z,46.10
2018-04-23T11:25:08.039Z,45.40
2018-04-23T11:30:11.875Z,45.30
2018-04-23T11:35:14.812Z,45.20
2018-04-23T11:40:20.245Z,44.30
2018-04-23T11:45:23.905Z,45.20
2018-04-23T11:50:26.986Z,44.80
2018-04-23T11:55:30.433Z,45.40
2018-04-23T12:00:33.759Z,44.10
2018-04-23T12:05:37.427Z,45.60
2018-04-23T12:10:40.987Z,53.30
2018-04-23T12:15:43.949Z,59.60
2018-04-23T12:20:46.869Z,62.00
2018-04-23T12:25:50.531Z,62.80
2018-04-23T12:30:53.860Z,64.00
2018-04-23T12:35:56.656Z,64.50
2018-04-23T12:40:59.581Z,65.90
2018-04-23T12:46:02.711Z,67.30
2018-04-23T12:51:06.083Z,68.10
2018-04-23T12:56:08.832Z,69.20
2018-04-23T13:01:11.850Z,69.30
2018-04-23T13:06:14.879Z,68.80
2018-04-23T13:11:18.138Z,68.30
2018-04-23T13:16:21.009Z,69.70
2018-04-23T13:21:25.527Z,69.30
2018-04-23T13:26:28.441Z,67.90
2018-04-23T13:31:32.034Z,67.20
2018-04-23T13:36:35.725Z,66.20
2018-04-23T13:41:39.378Z,64.70
2018-04-23T13:46:45.672Z,64.80
2018-04-23T13:51:51.874Z,64.10
2018-04-23T13:56:56.497Z,63.70
2018-04-23T14:01:59.389Z,62.80
2018-04-23T14:12:13.055Z,62.60
2018-04-23T14:17:16.701Z,61.60
2018-04-23T14:22:20.310Z,61.20
2018-04-23T14:27:24.995Z,58.60
2018-04-23T14:32:28.001Z,58.60
2018-04-23T14:37:30.725Z,59.40
2018-04-23T14:42:33.947Z,59.00
2018-04-23T14:47:37.837Z,58.80
2018-04-23T14:52:41.663Z,59.00
2018-04-23T14:57:45.310Z,58.90
2018-04-23T15:02:48.552Z,58.70
2018-04-23T15:07:51.824Z,58.90
2018-04-23T15:12:54.873Z,58.80
2018-04-23T15:18:00.111Z,59.00
2018-04-23T15:23:06.298Z,58.80
2018-04-23T15:28:08.992Z,59.00
2018-04-23T15:33:12.617Z,58.60
2018-04-23T15:38:15.578Z,58.20
2018-04-23T15:43:19.781Z,58.40
2018-04-23T15:48:24.864Z,58.70
2018-04-23T15:53:27.598Z,59.20
2018-04-23T15:58:31.817Z,58.80
2018-04-23T16:08:42.746Z,58.90
2018-04-23T16:13:46.837Z,59.10
2018-04-23T16:18:49.536Z,58.90
2018-04-23T16:23:53.106Z,59.10
2018-04-23T16:28:56.212Z,59.30
2018-04-23T16:34:01.588Z,59.30
2018-04-23T16:39:04.761Z,59.30
2018-04-23T16:44:08.207Z,59.80
2018-04-23T16:49:11.847Z,60.00
2018-04-23T16:54:15.637Z,59.80
2018-04-23T16:59:18.394Z,60.00
2018-04-23T17:04:22.000Z,59.10
2018-04-23T17:09:24.735Z,58.70
2018-04-23T17:14:28.250Z,58.60
2018-04-23T17:19:32.170Z,59.10
2018-04-23T17:24:35.257Z,58.70
2018-04-23T17:29:39.121Z,58.50
2018-04-23T17:34:42.083Z,58.50
2018-04-23T17:39:49.434Z,58.70
2018-04-23T17:44:52.720Z,58.90
2018-04-23T17:49:58.929Z,58.90
2018-04-23T17:55:02.841Z,58.90
2018-04-23T18:00:05.626Z,58.60
2018-04-23T18:05:10.186Z,58.60
2018-04-23T18:10:13.594Z,58.70
2018-04-23T18:15:17.966Z,59.40
2018-04-23T18:20:25.014Z,59.20
2018-04-23T18:25:29.311Z,60.00
2018-04-23T18:30:32.888Z,60.50
2018-04-23T18:35:35.625Z,61.00
2018-04-23T18:40:40.675Z,61.10
2018-04-23T18:45:45.083Z,61.50
2018-04-23T18:50:49.369Z,61.80
2018-04-23T18:55:54.211Z,62.10
2018-04-23T19:01:00.922Z,62.50
2018-04-23T19:06:05.932Z,62.70
2018-04-23T19:11:10.818Z,63.30
2018-04-23T19:16:15.319Z,63.50
2018-04-23T19:21:20.897Z,64.30
2018-04-23T19:26:35.760Z,64.60
2018-04-23T19:31:40.301Z,64.70
2018-04-23T19:36:45.165Z,64.90
2018-04-23T19:41:51.590Z,65.70
2018-04-23T19:46:56.250Z,65.20
2018-04-23T19:52:01.482Z,66.00
2018-04-23T19:57:06.693Z,66.20
2018-04-23T20:02:14.893Z,66.40
2018-04-23T20:07:21.349Z,66.90
2018-04-23T20:12:28.285Z,66.90
2018-04-23T20:17:33.366Z,66.90
2018-04-23T20:22:44.189Z,66.90
2018-04-23T20:27:48.820Z,67.80
2018-04-23T20:32:53.068Z,67.70
2018-04-23T20:37:59.035Z,68.00
2018-04-23T20:43:04.350Z,67.80
2018-04-23T20:48:11.335Z,67.70
2018-04-23T20:53:18.948Z,67.30
2018-04-23T20:58:24.160Z,68.00
2018-04-23T21:03:30.139Z,68.50
2018-04-23T21:08:33.811Z,68.90
2018-04-23T21:13:37.682Z,69.20
2018-04-23T21:18:46.276Z,69.50
2018-04-23T21:23:50.922Z,70.10
2018-04-23T21:28:57.734Z,70.10
2018-04-23T21:34:02.244Z,70.50
2018-04-23T21:39:10.559Z,70.90
2018-04-23T21:44:16.270Z,71.10
2018-04-23T21:49:19.801Z,71.00
2018-04-23T21:54:26.777Z,72.00
2018-04-23T21:59:30.893Z,72.00
2018-04-23T22:04:36.948Z,71.70
2018-04-23T22:09:41.388Z,71.70
2018-04-23T22:14:46.608Z,71.90
2018-04-23T22:19:52.098Z,72.10
2018-04-23T22:25:00.368Z,72.30
2018-04-23T22:30:04.039Z,72.60
2018-04-23T22:35:07.803Z,72.40
2018-04-23T22:40:10.941Z,72.60
2018-04-23T22:45:18.767Z,73.00
2018-04-23T22:50:23.239Z,73.00
2018-04-23T22:55:28.113Z,73.10
2018-04-23T23:00:31.687Z,73.30
2018-04-23T23:05:37.701Z,73.60
2018-04-23T23:10:42.375Z,73.50
2018-04-23T23:15:49.787Z,73.60
2018-04-23T23:20:55.309Z,73.70
2018-04-23T23:26:00.743Z,73.70
2018-04-23T23:31:05.067Z,74.00
2018-04-23T23:41:16.027Z,74.40
2018-04-23T23:46:22.136Z,74.40
2018-04-23T23:51:30.609Z,73.80
2018-04-23T23:56:35.799Z,74.30
